SWA561 EBBR-LOWW
Flight info
| Callsign | SWA561 |
|---|---|
| Flight time | 1h 40m |
| Altitude | 35000 |
| Route | SOPOK4V SOPOK Y863 ROPUV L607 EMGOD DCT BOMBI DCT BARSU DCT EKSOS DCT LULAR DCT RUDAP DCT BUDEX BUDEX2W |
| Aircraft | B738/M-SDE2E3FGHIRWXY/LB1 |
Departure
| Time | 2026-05-01 12:22 |
|---|---|
| Airport | Brussels Airport (EBBR) |
Arrival
| Time | 2026-05-01 14:02 |
|---|---|
| Airport | Vienna International Airport (LOWW) |
| Time | Latitude | Longitude | Altitude | Speed | Heading |
|---|---|---|---|---|---|
| 2026-05-01 12:05 | 50.90056 | 4.49102 | 130 ft | 0 kts | 335° |
| 2026-05-01 12:12 | 50.90051 | 4.49105 | 130 ft | 2 kts | 335° |
| 2026-05-01 12:12 | 50.90036 | 4.49116 | 126 ft | 2 kts | 335° |
| 2026-05-01 12:12 | 50.90022 | 4.49127 | 128 ft | 2 kts | 335° |
| 2026-05-01 12:13 | 50.90007 | 4.49137 | 132 ft | 2 kts | 335° |
| 2026-05-01 12:13 | 50.89993 | 4.49148 | 133 ft | 2 kts | 335° |
| 2026-05-01 12:13 | 50.89984 | 4.49154 | 133 ft | 0 kts | 335° |
| 2026-05-01 12:13 | 50.89986 | 4.49153 | 133 ft | 0 kts | 335° |
| 2026-05-01 12:14 | 50.89978 | 4.49140 | 133 ft | 4 kts | 189° |
| 2026-05-01 12:14 | 50.89974 | 4.49142 | 133 ft | 0 kts | 166° |
| 2026-05-01 12:16 | 50.89938 | 4.49161 | 135 ft | 11 kts | 158° |
| 2026-05-01 12:16 | 50.89869 | 4.49208 | 139 ft | 6 kts | 152° |
| 2026-05-01 12:16 | 50.89862 | 4.49235 | 139 ft | 10 kts | 68° |
| 2026-05-01 12:16 | 50.89886 | 4.49323 | 137 ft | 6 kts | 143° |
| 2026-05-01 12:17 | 50.89827 | 4.49330 | 140 ft | 9 kts | 194° |
| 2026-05-01 12:17 | 50.89747 | 4.49301 | 145 ft | 16 kts | 191° |
| 2026-05-01 12:17 | 50.89638 | 4.49259 | 152 ft | 14 kts | 202° |
| 2026-05-01 12:17 | 50.89557 | 4.49187 | 156 ft | 14 kts | 199° |
| 2026-05-01 12:18 | 50.89466 | 4.49150 | 161 ft | 13 kts | 195° |
| 2026-05-01 12:18 | 50.89379 | 4.49114 | 164 ft | 13 kts | 193° |
| 2026-05-01 12:18 | 50.89293 | 4.49082 | 167 ft | 12 kts | 193° |
| 2026-05-01 12:18 | 50.89209 | 4.49053 | 174 ft | 12 kts | 187° |
| 2026-05-01 12:19 | 50.89151 | 4.49050 | 175 ft | 6 kts | 204° |
| 2026-05-01 12:19 | 50.89133 | 4.49033 | 176 ft | 3 kts | 147° |
| 2026-05-01 12:19 | 50.89138 | 4.49028 | 176 ft | 2 kts | 257° |
| 2026-05-01 12:19 | 50.89135 | 4.49007 | 176 ft | 8 kts | 254° |
| 2026-05-01 12:20 | 50.89114 | 4.48886 | 176 ft | 5 kts | 265° |
| 2026-05-01 12:20 | 50.89111 | 4.48858 | 176 ft | 2 kts | 223° |
| 2026-05-01 12:20 | 50.89109 | 4.48886 | 176 ft | 3 kts | 85° |
| 2026-05-01 12:20 | 50.89111 | 4.48897 | 176 ft | 0 kts | 78° |
| 2026-05-01 12:21 | 50.89118 | 4.48945 | 176 ft | 26 kts | 74° |
| 2026-05-01 12:21 | 50.89261 | 4.49591 | 175 ft | 97 kts | 70° |
| 2026-05-01 12:21 | 50.89562 | 4.50911 | 174 ft | 155 kts | 71° |
| 2026-05-01 12:22 | 50.90031 | 4.52621 | 620 ft | 173 kts | 70° |
| 2026-05-01 12:22 | 50.90553 | 4.54457 | 1238 ft | 191 kts | 69° |
| 2026-05-01 12:22 | 50.91094 | 4.56449 | 2066 ft | 202 kts | 71° |
| 2026-05-01 12:22 | 50.91639 | 4.58516 | 2989 ft | 201 kts | 69° |
| 2026-05-01 12:23 | 50.92306 | 4.60508 | 3773 ft | 208 kts | 62° |
| 2026-05-01 12:23 | 50.92988 | 4.62535 | 4534 ft | 209 kts | 69° |
| 2026-05-01 12:23 | 50.93551 | 4.64653 | 5289 ft | 210 kts | 73° |
| 2026-05-01 12:23 | 50.94081 | 4.66918 | 5653 ft | 231 kts | 74° |
| 2026-05-01 12:24 | 50.94633 | 4.69437 | 6039 ft | 248 kts | 75° |
| 2026-05-01 12:24 | 50.95175 | 4.72070 | 6679 ft | 255 kts | 76° |
| 2026-05-01 12:24 | 50.95674 | 4.74763 | 7283 ft | 257 kts | 84° |
| 2026-05-01 12:24 | 50.95540 | 4.77532 | 7880 ft | 257 kts | 114° |
| 2026-05-01 12:25 | 50.94510 | 4.79879 | 8372 ft | 265 kts | 138° |
| 2026-05-01 12:25 | 50.91633 | 4.83682 | 9980 ft | 273 kts | 142° |
| 2026-05-01 12:25 | 50.90141 | 4.85595 | 10731 ft | 279 kts | 142° |
| 2026-05-01 12:26 | 50.88529 | 4.87427 | 11229 ft | 291 kts | 155° |
| 2026-05-01 12:26 | 50.84519 | 4.88669 | 12635 ft | 300 kts | 174° |
| 2026-05-01 12:26 | 50.82420 | 4.88954 | 13434 ft | 303 kts | 174° |
| 2026-05-01 12:27 | 50.80304 | 4.89243 | 14168 ft | 307 kts | 174° |
| 2026-05-01 12:27 | 50.75995 | 4.89880 | 15485 ft | 315 kts | 173° |
| 2026-05-01 12:28 | 50.71590 | 4.90565 | 16805 ft | 323 kts | 173° |
| 2026-05-01 12:28 | 50.69353 | 4.91014 | 17462 ft | 325 kts | 164° |
| 2026-05-01 12:28 | 50.65693 | 4.95107 | 18738 ft | 334 kts | 125° |
| 2026-05-01 12:29 | 50.64697 | 4.98423 | 19296 ft | 339 kts | 110° |
| 2026-05-01 12:29 | 50.63962 | 5.01981 | 19880 ft | 343 kts | 109° |
| 2026-05-01 12:29 | 50.62535 | 5.09254 | 20977 ft | 351 kts | 108° |
| 2026-05-01 12:30 | 50.61047 | 5.16593 | 22094 ft | 356 kts | 109° |
| 2026-05-01 12:30 | 50.60279 | 5.20303 | 22701 ft | 358 kts | 109° |
| 2026-05-01 12:30 | 50.59447 | 5.24003 | 23260 ft | 360 kts | 116° |
| 2026-05-01 12:31 | 50.58030 | 5.27237 | 23836 ft | 361 kts | 132° |
| 2026-05-01 12:31 | 50.56271 | 5.30075 | 24310 ft | 364 kts | 135° |
| 2026-05-01 12:31 | 50.54441 | 5.32860 | 24724 ft | 368 kts | 135° |
| 2026-05-01 12:31 | 50.52574 | 5.35668 | 25006 ft | 375 kts | 135° |
| 2026-05-01 12:32 | 50.50690 | 5.38513 | 25548 ft | 374 kts | 135° |
| 2026-05-01 12:32 | 50.46908 | 5.44286 | 26274 ft | 384 kts | 135° |
| 2026-05-01 12:32 | 50.45006 | 5.47206 | 26865 ft | 381 kts | 135° |
| 2026-05-01 12:33 | 50.43105 | 5.50132 | 27254 ft | 385 kts | 135° |
| 2026-05-01 12:33 | 50.41171 | 5.53108 | 27546 ft | 391 kts | 135° |
| 2026-05-01 12:33 | 50.39233 | 5.56086 | 28069 ft | 389 kts | 135° |
| 2026-05-01 12:33 | 50.37290 | 5.59070 | 28423 ft | 393 kts | 135° |
| 2026-05-01 12:34 | 50.35990 | 5.61065 | 28615 ft | 397 kts | 135° |
| 2026-05-01 12:34 | 50.33361 | 5.65092 | 29156 ft | 399 kts | 135° |
| 2026-05-01 12:34 | 50.31372 | 5.68135 | 29486 ft | 402 kts | 135° |
| 2026-05-01 12:34 | 50.29362 | 5.71206 | 29868 ft | 404 kts | 135° |
| 2026-05-01 12:35 | 50.28008 | 5.73288 | 30119 ft | 406 kts | 133° |
| 2026-05-01 12:35 | 50.26249 | 5.76745 | 30442 ft | 407 kts | 122° |
| 2026-05-01 12:35 | 50.24876 | 5.80642 | 30727 ft | 410 kts | 114° |
| 2026-05-01 12:35 | 50.23932 | 5.84837 | 31003 ft | 412 kts | 105° |
| 2026-05-01 12:36 | 50.23214 | 5.89129 | 31299 ft | 414 kts | 104° |
| 2026-05-01 12:36 | 50.22518 | 5.93505 | 31529 ft | 417 kts | 104° |
| 2026-05-01 12:36 | 50.21807 | 5.97921 | 31781 ft | 420 kts | 104° |
| 2026-05-01 12:36 | 50.21078 | 6.02336 | 32035 ft | 422 kts | 105° |
| 2026-05-01 12:37 | 50.20329 | 6.06779 | 32295 ft | 424 kts | 105° |
| 2026-05-01 12:37 | 50.19567 | 6.11239 | 32566 ft | 425 kts | 105° |
| 2026-05-01 12:37 | 50.18817 | 6.15713 | 32819 ft | 427 kts | 102° |
| 2026-05-01 12:37 | 50.18393 | 6.20310 | 33031 ft | 430 kts | 94° |
| 2026-05-01 12:38 | 50.18450 | 6.24984 | 33232 ft | 433 kts | 85° |
| 2026-05-01 12:38 | 50.18761 | 6.29686 | 33474 ft | 435 kts | 84° |
| 2026-05-01 12:38 | 50.19098 | 6.34393 | 33689 ft | 437 kts | 84° |
| 2026-05-01 12:38 | 50.19429 | 6.39104 | 33942 ft | 439 kts | 84° |
| 2026-05-01 12:39 | 50.19742 | 6.43803 | 34139 ft | 441 kts | 85° |
| 2026-05-01 12:39 | 50.20045 | 6.48583 | 34328 ft | 443 kts | 85° |
| 2026-05-01 12:39 | 50.20340 | 6.53383 | 34485 ft | 446 kts | 85° |
| 2026-05-01 12:39 | 50.20634 | 6.58212 | 34671 ft | 447 kts | 85° |
| 2026-05-01 12:40 | 50.20925 | 6.63037 | 34912 ft | 446 kts | 85° |
| 2026-05-01 12:40 | 50.21213 | 6.67856 | 35151 ft | 446 kts | 85° |
| 2026-05-01 12:40 | 50.21496 | 6.72667 | 35301 ft | 447 kts | 85° |
| 2026-05-01 12:40 | 50.21779 | 6.77514 | 35297 ft | 449 kts | 85° |
| 2026-05-01 12:41 | 50.22159 | 6.87215 | 35302 ft | 446 kts | 94° |
| 2026-05-01 12:41 | 50.21642 | 6.96835 | 35317 ft | 443 kts | 96° |
| 2026-05-01 12:42 | 50.21067 | 7.06399 | 35316 ft | 441 kts | 95° |
| 2026-05-01 12:42 | 50.20534 | 7.15944 | 35321 ft | 441 kts | 95° |
| 2026-05-01 12:43 | 50.20016 | 7.25424 | 35326 ft | 441 kts | 95° |
| 2026-05-01 12:43 | 50.19471 | 7.34992 | 35327 ft | 443 kts | 96° |
| 2026-05-01 12:44 | 50.18659 | 7.44546 | 35319 ft | 445 kts | 98° |
| 2026-05-01 12:45 | 50.16846 | 7.63740 | 35312 ft | 449 kts | 98° |
| 2026-05-01 12:45 | 50.15962 | 7.73375 | 35320 ft | 450 kts | 98° |
| 2026-05-01 12:46 | 50.15076 | 7.83016 | 35317 ft | 451 kts | 98° |
| 2026-05-01 12:46 | 50.14179 | 7.92700 | 35319 ft | 451 kts | 98° |
| 2026-05-01 12:47 | 50.13273 | 8.02378 | 35319 ft | 451 kts | 98° |
| 2026-05-01 12:47 | 50.12358 | 8.12052 | 35328 ft | 450 kts | 98° |
| 2026-05-01 12:48 | 50.11439 | 8.21686 | 35329 ft | 449 kts | 97° |
| 2026-05-01 12:48 | 50.10514 | 8.31297 | 35343 ft | 448 kts | 98° |
| 2026-05-01 12:49 | 50.09582 | 8.40885 | 35340 ft | 447 kts | 97° |
| 2026-05-01 12:49 | 50.08652 | 8.50381 | 35353 ft | 446 kts | 97° |
| 2026-05-01 12:50 | 50.07710 | 8.59914 | 35343 ft | 445 kts | 97° |
| 2026-05-01 12:50 | 50.06763 | 8.69424 | 35347 ft | 444 kts | 97° |
| 2026-05-01 12:51 | 50.05806 | 8.78948 | 35350 ft | 444 kts | 97° |
| 2026-05-01 12:52 | 50.04602 | 8.93253 | 35338 ft | 444 kts | 95° |
| 2026-05-01 12:52 | 50.03511 | 9.07514 | 35333 ft | 444 kts | 95° |
| 2026-05-01 12:53 | 50.02361 | 9.21834 | 35343 ft | 445 kts | 95° |
| 2026-05-01 12:54 | 50.01576 | 9.31392 | 35346 ft | 445 kts | 95° |
| 2026-05-01 12:54 | 50.00384 | 9.45745 | 35351 ft | 446 kts | 96° |
| 2026-05-01 12:55 | 49.99171 | 9.60113 | 35354 ft | 446 kts | 96° |
| 2026-05-01 12:56 | 49.98360 | 9.69606 | 35354 ft | 446 kts | 96° |
| 2026-05-01 12:56 | 49.97535 | 9.79166 | 35351 ft | 446 kts | 96° |
| 2026-05-01 12:57 | 49.96703 | 9.88719 | 35355 ft | 446 kts | 96° |
| 2026-05-01 12:57 | 49.95441 | 10.03031 | 35358 ft | 445 kts | 96° |
| 2026-05-01 12:58 | 49.94591 | 10.12550 | 35361 ft | 444 kts | 96° |
| 2026-05-01 12:59 | 49.93308 | 10.26788 | 35358 ft | 443 kts | 96° |
| 2026-05-01 12:59 | 49.91775 | 10.40832 | 35354 ft | 443 kts | 107° |
| 2026-05-01 13:00 | 49.88332 | 10.54152 | 35367 ft | 443 kts | 110° |
| 2026-05-01 13:01 | 49.84821 | 10.67389 | 35359 ft | 442 kts | 110° |
| 2026-05-01 13:02 | 49.81359 | 10.80630 | 35362 ft | 442 kts | 110° |
| 2026-05-01 13:07 | 49.57651 | 11.78029 | 35392 ft | 439 kts | 105° |
| 2026-05-01 13:08 | 49.55765 | 11.86988 | 35388 ft | 439 kts | 105° |
| 2026-05-01 13:08 | 49.53887 | 11.95866 | 35396 ft | 438 kts | 105° |
| 2026-05-01 13:09 | 49.51993 | 12.04785 | 35392 ft | 438 kts | 105° |
| 2026-05-01 13:09 | 49.50088 | 12.13719 | 35390 ft | 438 kts | 105° |
| 2026-05-01 13:10 | 49.48182 | 12.22615 | 35385 ft | 438 kts | 105° |
| 2026-05-01 13:10 | 49.46274 | 12.31488 | 35389 ft | 437 kts | 105° |
| 2026-05-01 13:11 | 49.44360 | 12.40350 | 35385 ft | 436 kts | 105° |
| 2026-05-01 13:11 | 49.42452 | 12.49144 | 35386 ft | 436 kts | 105° |
| 2026-05-01 13:12 | 49.40529 | 12.57972 | 35371 ft | 435 kts | 105° |
| 2026-05-01 13:12 | 49.38604 | 12.66773 | 35377 ft | 435 kts | 105° |
| 2026-05-01 13:13 | 49.36672 | 12.75572 | 35372 ft | 434 kts | 105° |
| 2026-05-01 13:13 | 49.34607 | 12.84286 | 35375 ft | 434 kts | 108° |
| 2026-05-01 13:14 | 49.32445 | 12.92944 | 35382 ft | 434 kts | 108° |
| 2026-05-01 13:14 | 49.30311 | 13.01535 | 35388 ft | 434 kts | 107° |
| 2026-05-01 13:15 | 49.28174 | 13.10182 | 35372 ft | 434 kts | 107° |
| 2026-05-01 13:15 | 49.27105 | 13.14506 | 35122 ft | 436 kts | 107° |
| 2026-05-01 13:15 | 49.26026 | 13.18861 | 34829 ft | 437 kts | 107° |
| 2026-05-01 13:15 | 49.24945 | 13.23207 | 34549 ft | 435 kts | 107° |
| 2026-05-01 13:16 | 49.23870 | 13.27505 | 34232 ft | 430 kts | 108° |
| 2026-05-01 13:16 | 49.22759 | 13.31758 | 33908 ft | 427 kts | 108° |
| 2026-05-01 13:16 | 49.21630 | 13.35949 | 33578 ft | 424 kts | 109° |
| 2026-05-01 13:17 | 49.18268 | 13.48289 | 32635 ft | 418 kts | 108° |
| 2026-05-01 13:17 | 49.17155 | 13.52389 | 32324 ft | 416 kts | 108° |
| 2026-05-01 13:18 | 49.14977 | 13.60397 | 31678 ft | 399 kts | 108° |
| 2026-05-01 13:18 | 49.13914 | 13.64308 | 31395 ft | 399 kts | 108° |
| 2026-05-01 13:18 | 49.13207 | 13.66910 | 31200 ft | 401 kts | 108° |
| 2026-05-01 13:18 | 49.12135 | 13.70857 | 30915 ft | 404 kts | 108° |
| 2026-05-01 13:19 | 49.11059 | 13.74806 | 30627 ft | 402 kts | 108° |
| 2026-05-01 13:19 | 49.09637 | 13.80003 | 30207 ft | 399 kts | 108° |
| 2026-05-01 13:19 | 49.07500 | 13.87792 | 29535 ft | 396 kts | 108° |
| 2026-05-01 13:20 | 49.06780 | 13.90412 | 29308 ft | 395 kts | 108° |
| 2026-05-01 13:20 | 49.05735 | 13.94206 | 28976 ft | 392 kts | 108° |
| 2026-05-01 13:20 | 49.04681 | 13.98029 | 28647 ft | 389 kts | 108° |
| 2026-05-01 13:21 | 49.02596 | 14.05576 | 28018 ft | 384 kts | 108° |
| 2026-05-01 13:21 | 49.01561 | 14.09314 | 27696 ft | 381 kts | 108° |
| 2026-05-01 13:21 | 49.00531 | 14.13026 | 27394 ft | 379 kts | 108° |
| 2026-05-01 13:21 | 48.99507 | 14.16713 | 27082 ft | 376 kts | 108° |
| 2026-05-01 13:22 | 48.98488 | 14.20379 | 26774 ft | 374 kts | 108° |
| 2026-05-01 13:22 | 48.97477 | 14.24011 | 26475 ft | 371 kts | 108° |
| 2026-05-01 13:22 | 48.96487 | 14.27560 | 26179 ft | 369 kts | 108° |
| 2026-05-01 13:22 | 48.95483 | 14.31150 | 25881 ft | 367 kts | 108° |
| 2026-05-01 13:23 | 48.94369 | 14.34648 | 25578 ft | 371 kts | 117° |
| 2026-05-01 13:23 | 48.92852 | 14.37839 | 25306 ft | 371 kts | 122° |
| 2026-05-01 13:23 | 48.91262 | 14.40922 | 25019 ft | 370 kts | 122° |
| 2026-05-01 13:23 | 48.89669 | 14.43971 | 24735 ft | 368 kts | 122° |
| 2026-05-01 13:24 | 48.88084 | 14.47023 | 24452 ft | 366 kts | 122° |
| 2026-05-01 13:24 | 48.86519 | 14.50068 | 24176 ft | 364 kts | 122° |
| 2026-05-01 13:24 | 48.84975 | 14.53095 | 23890 ft | 363 kts | 122° |
| 2026-05-01 13:25 | 48.81909 | 14.59140 | 23090 ft | 362 kts | 122° |
| 2026-05-01 13:25 | 48.80379 | 14.62157 | 22692 ft | 358 kts | 122° |
| 2026-05-01 13:25 | 48.78874 | 14.65119 | 22285 ft | 351 kts | 122° |
| 2026-05-01 13:25 | 48.77391 | 14.68039 | 21903 ft | 347 kts | 122° |
| 2026-05-01 13:26 | 48.75918 | 14.70941 | 21545 ft | 347 kts | 122° |
| 2026-05-01 13:26 | 48.74446 | 14.73833 | 21194 ft | 346 kts | 122° |
| 2026-05-01 13:26 | 48.72976 | 14.76716 | 20842 ft | 345 kts | 122° |
| 2026-05-01 13:26 | 48.71504 | 14.79597 | 20495 ft | 344 kts | 122° |
| 2026-05-01 13:27 | 48.70038 | 14.82456 | 20146 ft | 343 kts | 122° |
| 2026-05-01 13:27 | 48.68575 | 14.85306 | 19804 ft | 342 kts | 122° |
| 2026-05-01 13:27 | 48.65669 | 14.90963 | 19178 ft | 339 kts | 122° |
| 2026-05-01 13:28 | 48.62811 | 14.96521 | 18550 ft | 335 kts | 123° |
| 2026-05-01 13:28 | 48.61382 | 14.99292 | 18205 ft | 334 kts | 123° |
| 2026-05-01 13:29 | 48.58747 | 15.04951 | 17518 ft | 321 kts | 105° |
| 2026-05-01 13:29 | 48.57594 | 15.11319 | 16971 ft | 312 kts | 99° |
| 2026-05-01 13:30 | 48.55487 | 15.23888 | 15873 ft | 307 kts | 99° |
| 2026-05-01 13:31 | 48.54413 | 15.30115 | 15329 ft | 306 kts | 100° |
| 2026-05-01 13:31 | 48.52800 | 15.39395 | 14534 ft | 303 kts | 100° |
| 2026-05-01 13:32 | 48.51822 | 15.45547 | 13990 ft | 298 kts | 93° |
| 2026-05-01 13:33 | 48.51376 | 15.54770 | 13127 ft | 292 kts | 89° |
| 2026-05-01 13:33 | 48.51062 | 15.60873 | 12555 ft | 291 kts | 90° |
| 2026-05-01 13:34 | 48.50720 | 15.66876 | 12003 ft | 288 kts | 91° |
| 2026-05-01 13:34 | 48.50371 | 15.72859 | 11443 ft | 285 kts | 91° |
| 2026-05-01 13:35 | 48.50022 | 15.78795 | 10911 ft | 284 kts | 91° |
| 2026-05-01 13:35 | 48.49848 | 15.81748 | 10648 ft | 283 kts | 91° |
| 2026-05-01 13:35 | 48.49499 | 15.87646 | 10098 ft | 282 kts | 91° |
| 2026-05-01 13:36 | 48.49322 | 15.90594 | 9816 ft | 282 kts | 91° |
| 2026-05-01 13:36 | 48.49146 | 15.93536 | 9520 ft | 282 kts | 91° |
| 2026-05-01 13:36 | 48.48790 | 15.99433 | 8938 ft | 283 kts | 92° |
| 2026-05-01 13:37 | 48.48609 | 16.02390 | 8667 ft | 283 kts | 92° |
| 2026-05-01 13:37 | 48.48432 | 16.05321 | 8395 ft | 284 kts | 91° |
| 2026-05-01 13:37 | 48.48250 | 16.08283 | 8109 ft | 283 kts | 92° |
| 2026-05-01 13:37 | 48.48080 | 16.11224 | 7834 ft | 281 kts | 91° |
| 2026-05-01 13:38 | 48.47855 | 16.17105 | 7276 ft | 281 kts | 90° |
| 2026-05-01 13:38 | 48.47749 | 16.20043 | 7029 ft | 282 kts | 90° |
| 2026-05-01 13:38 | 48.47640 | 16.23007 | 6907 ft | 284 kts | 90° |
| 2026-05-01 13:39 | 48.47527 | 16.26004 | 6759 ft | 287 kts | 91° |
| 2026-05-01 13:39 | 48.47410 | 16.29004 | 6613 ft | 288 kts | 90° |
| 2026-05-01 13:39 | 48.47293 | 16.32021 | 6458 ft | 287 kts | 90° |
| 2026-05-01 13:39 | 48.47175 | 16.35014 | 6294 ft | 284 kts | 91° |
| 2026-05-01 13:40 | 48.47057 | 16.37961 | 6148 ft | 279 kts | 91° |
| 2026-05-01 13:40 | 48.46942 | 16.40888 | 6043 ft | 281 kts | 91° |
| 2026-05-01 13:40 | 48.46825 | 16.43861 | 6013 ft | 285 kts | 90° |
| 2026-05-01 13:40 | 48.46705 | 16.46795 | 6001 ft | 284 kts | 91° |
| 2026-05-01 13:41 | 48.46581 | 16.49743 | 6000 ft | 280 kts | 90° |
| 2026-05-01 13:41 | 48.46427 | 16.52651 | 5995 ft | 279 kts | 98° |
| 2026-05-01 13:41 | 48.45653 | 16.55330 | 6007 ft | 285 kts | 126° |
| 2026-05-01 13:41 | 48.44103 | 16.57201 | 6020 ft | 291 kts | 154° |
| 2026-05-01 13:42 | 48.42183 | 16.58200 | 6004 ft | 292 kts | 163° |
| 2026-05-01 13:42 | 48.40221 | 16.58997 | 6007 ft | 292 kts | 164° |
| 2026-05-01 13:42 | 48.38244 | 16.59779 | 6006 ft | 294 kts | 164° |
| 2026-05-01 13:42 | 48.36253 | 16.60573 | 6004 ft | 296 kts | 164° |
| 2026-05-01 13:43 | 48.34263 | 16.61392 | 6010 ft | 297 kts | 163° |
| 2026-05-01 13:43 | 48.32281 | 16.62220 | 5998 ft | 295 kts | 163° |
| 2026-05-01 13:43 | 48.30308 | 16.63047 | 5993 ft | 292 kts | 163° |
| 2026-05-01 13:43 | 48.28378 | 16.63858 | 5997 ft | 292 kts | 163° |
| 2026-05-01 13:44 | 48.26420 | 16.64682 | 6009 ft | 293 kts | 163° |
| 2026-05-01 13:44 | 48.24449 | 16.65509 | 6006 ft | 294 kts | 163° |
| 2026-05-01 13:44 | 48.22479 | 16.66334 | 6000 ft | 295 kts | 163° |
| 2026-05-01 13:44 | 48.20499 | 16.67165 | 6002 ft | 295 kts | 163° |
| 2026-05-01 13:45 | 48.18518 | 16.67995 | 6004 ft | 295 kts | 163° |
| 2026-05-01 13:45 | 48.16538 | 16.68823 | 6005 ft | 295 kts | 163° |
| 2026-05-01 13:45 | 48.14561 | 16.69651 | 6004 ft | 295 kts | 163° |
| 2026-05-01 13:45 | 48.12582 | 16.70475 | 5993 ft | 295 kts | 163° |
| 2026-05-01 13:46 | 48.10606 | 16.71301 | 6010 ft | 294 kts | 163° |
| 2026-05-01 13:46 | 48.08651 | 16.72115 | 5997 ft | 294 kts | 163° |
| 2026-05-01 13:46 | 48.06682 | 16.72935 | 6011 ft | 295 kts | 163° |
| 2026-05-01 13:46 | 48.04697 | 16.73759 | 5999 ft | 296 kts | 163° |
| 2026-05-01 13:47 | 48.02736 | 16.74572 | 6000 ft | 289 kts | 163° |
| 2026-05-01 13:47 | 48.00836 | 16.75361 | 5987 ft | 277 kts | 163° |
| 2026-05-01 13:47 | 47.99009 | 16.76120 | 6001 ft | 269 kts | 163° |
| 2026-05-01 13:47 | 47.97219 | 16.76863 | 5993 ft | 265 kts | 163° |
| 2026-05-01 13:48 | 47.95441 | 16.77598 | 5998 ft | 265 kts | 163° |
| 2026-05-01 13:48 | 47.93650 | 16.78340 | 6010 ft | 269 kts | 163° |
| 2026-05-01 13:48 | 47.91829 | 16.79093 | 6015 ft | 273 kts | 163° |
| 2026-05-01 13:48 | 47.89994 | 16.79850 | 6001 ft | 274 kts | 163° |
| 2026-05-01 13:49 | 47.88162 | 16.80604 | 6007 ft | 271 kts | 163° |
| 2026-05-01 13:49 | 47.86348 | 16.81350 | 6004 ft | 270 kts | 163° |
| 2026-05-01 13:49 | 47.84545 | 16.82092 | 5998 ft | 267 kts | 162° |
| 2026-05-01 13:49 | 47.82764 | 16.82825 | 6002 ft | 264 kts | 163° |
| 2026-05-01 13:50 | 47.81003 | 16.83548 | 6006 ft | 260 kts | 162° |
| 2026-05-01 13:50 | 47.79262 | 16.84262 | 6004 ft | 258 kts | 162° |
| 2026-05-01 13:50 | 47.77543 | 16.84968 | 6015 ft | 257 kts | 162° |
| 2026-05-01 13:50 | 47.75811 | 16.85679 | 6018 ft | 260 kts | 163° |
| 2026-05-01 13:51 | 47.74065 | 16.86365 | 6025 ft | 264 kts | 169° |
| 2026-05-01 13:51 | 47.72248 | 16.86163 | 6003 ft | 264 kts | 201° |
| 2026-05-01 13:51 | 47.70760 | 16.84654 | 6001 ft | 260 kts | 233° |
| 2026-05-01 13:51 | 47.69914 | 16.82331 | 6025 ft | 255 kts | 255° |
| 2026-05-01 13:52 | 47.69483 | 16.79794 | 5976 ft | 253 kts | 270° |
| 2026-05-01 13:52 | 47.69788 | 16.77261 | 5769 ft | 253 kts | 300° |
| 2026-05-01 13:52 | 47.70882 | 16.75273 | 5470 ft | 246 kts | 326° |
| 2026-05-01 13:52 | 47.72384 | 16.74186 | 5145 ft | 237 kts | 344° |
| 2026-05-01 13:53 | 47.73951 | 16.73525 | 4803 ft | 232 kts | 347° |
| 2026-05-01 13:53 | 47.77033 | 16.72443 | 4126 ft | 224 kts | 347° |
| 2026-05-01 13:53 | 47.78516 | 16.71862 | 4030 ft | 216 kts | 346° |
| 2026-05-01 13:54 | 47.79966 | 16.71270 | 4030 ft | 217 kts | 346° |
| 2026-05-01 13:54 | 47.81428 | 16.70665 | 3816 ft | 221 kts | 346° |
| 2026-05-01 13:54 | 47.82891 | 16.70051 | 3589 ft | 217 kts | 345° |
| 2026-05-01 13:54 | 47.83745 | 16.69692 | 3437 ft | 213 kts | 345° |
| 2026-05-01 13:56 | 47.83815 | 16.69663 | 3430 ft | 213 kts | 345° |
| 2026-05-01 13:56 | 47.85226 | 16.69075 | 3268 ft | 206 kts | 345° |
| 2026-05-01 13:56 | 47.86576 | 16.68510 | 3142 ft | 199 kts | 346° |
| 2026-05-01 13:57 | 47.87891 | 16.67940 | 3083 ft | 195 kts | 345° |
| 2026-05-01 13:57 | 47.88769 | 16.67578 | 3061 ft | 197 kts | 346° |
| 2026-05-01 13:57 | 47.90528 | 16.66853 | 3033 ft | 199 kts | 346° |
| 2026-05-01 13:57 | 47.91883 | 16.66289 | 3044 ft | 203 kts | 346° |
| 2026-05-01 13:58 | 47.93206 | 16.65730 | 2981 ft | 193 kts | 345° |
| 2026-05-01 13:58 | 47.94445 | 16.65207 | 2980 ft | 177 kts | 346° |
| 2026-05-01 13:58 | 47.95599 | 16.64742 | 2997 ft | 168 kts | 346° |
| 2026-05-01 13:58 | 47.96683 | 16.64296 | 2978 ft | 153 kts | 347° |
| 2026-05-01 13:59 | 47.97664 | 16.63885 | 2883 ft | 145 kts | 347° |
| 2026-05-01 13:59 | 47.98695 | 16.63451 | 2744 ft | 161 kts | 345° |
| 2026-05-01 13:59 | 47.99766 | 16.62993 | 2507 ft | 155 kts | 345° |
| 2026-05-01 13:59 | 48.00767 | 16.62560 | 2297 ft | 140 kts | 346° |
| 2026-05-01 14:00 | 48.01697 | 16.62169 | 2103 ft | 138 kts | 346° |
| 2026-05-01 14:00 | 48.02631 | 16.61775 | 1895 ft | 140 kts | 346° |
| 2026-05-01 14:00 | 48.03563 | 16.61387 | 1698 ft | 141 kts | 346° |
| 2026-05-01 14:00 | 48.04532 | 16.60972 | 1541 ft | 150 kts | 346° |
| 2026-05-01 14:01 | 48.05526 | 16.60551 | 1314 ft | 147 kts | 345° |
| 2026-05-01 14:01 | 48.06508 | 16.60134 | 1106 ft | 144 kts | 343° |
| 2026-05-01 14:01 | 48.07474 | 16.59724 | 919 ft | 147 kts | 343° |
| 2026-05-01 14:01 | 48.08454 | 16.59309 | 677 ft | 143 kts | 344° |
| 2026-05-01 14:02 | 48.09365 | 16.58920 | 598 ft | 128 kts | 343° |
| 2026-05-01 14:02 | 48.10010 | 16.58647 | 600 ft | 30 kts | 344° |
| 2026-05-01 14:02 | 48.10124 | 16.58598 | 599 ft | 19 kts | 345° |
| 2026-05-01 14:02 | 48.10238 | 16.58554 | 596 ft | 15 kts | 346° |
| 2026-05-01 14:03 | 48.10329 | 16.58484 | 597 ft | 14 kts | 327° |
| 2026-05-01 14:03 | 48.10403 | 16.58392 | 596 ft | 14 kts | 313° |
| 2026-05-01 14:03 | 48.10458 | 16.58277 | 599 ft | 13 kts | 299° |
| 2026-05-01 14:03 | 48.10509 | 16.58167 | 603 ft | 10 kts | 319° |
| 2026-05-01 14:04 | 48.10576 | 16.58134 | 602 ft | 10 kts | 342° |
| 2026-05-01 14:04 | 48.10640 | 16.58103 | 602 ft | 10 kts | 342° |
| 2026-05-01 14:04 | 48.10665 | 16.58092 | 603 ft | 0 kts | 342° |
| 2026-05-01 14:05 | 48.10693 | 16.58079 | 603 ft | 16 kts | 344° |
| 2026-05-01 14:05 | 48.10792 | 16.58036 | 603 ft | 14 kts | 343° |
| 2026-05-01 14:05 | 48.10885 | 16.57995 | 602 ft | 14 kts | 343° |
| 2026-05-01 14:05 | 48.10947 | 16.57946 | 612 ft | 7 kts | 319° |
| 2026-05-01 14:06 | 48.10969 | 16.57916 | 609 ft | 5 kts | 314° |
| 2026-05-01 14:06 | 48.11078 | 16.57788 | 603 ft | 27 kts | 341° |
| 2026-05-01 14:06 | 48.11202 | 16.57574 | 609 ft | 19 kts | 298° |
| 2026-05-01 14:06 | 48.11239 | 16.57462 | 608 ft | 17 kts | 297° |
| 2026-05-01 14:07 | 48.11288 | 16.57315 | 618 ft | 15 kts | 296° |
| 2026-05-01 14:07 | 48.11339 | 16.57159 | 609 ft | 20 kts | 296° |
| 2026-05-01 14:07 | 48.11401 | 16.56973 | 604 ft | 20 kts | 296° |
| 2026-05-01 14:08 | 48.11516 | 16.56916 | 601 ft | 26 kts | 2° |
| 2026-05-01 14:08 | 48.11592 | 16.56866 | 601 ft | 0 kts | 312° |
| 2026-05-01 14:08 | 48.11594 | 16.56860 | 601 ft | 0 kts | 306° |
| 2026-05-01 14:08 | 48.11634 | 16.56757 | 599 ft | 14 kts | 313° |
| 2026-05-01 14:09 | 48.11678 | 16.56723 | 598 ft | 0 kts | 346° |
| 2026-05-01 14:09 | 48.11737 | 16.56747 | 597 ft | 0 kts | 28° |